Terminal Aerodrome Forecast
Issued by NWS Albuquerque, NM

Home | Current Version | Previous Version | Text Only | Print | Product List | Glossary On
Versions: 1 2 3 4 5 6 7 8 9 10 11 12
000
FTUS45 KABQ 290542
TAFABQ
TAF
KABQ 290542Z 2906/3006 35008KT P6SM SKC
     FM291900 28010KT P6SM SCT250
     FM292200 28013KT P6SM SCT100 BKN180
     FM300300 02010KT P6SM SCT150=

USA.gov is the U.S. government's official web portal to all federal, state and local government web resources and services.